sensor_id;sensor_type;location;lat;lon;timestamp;pressure;altitude;pressure_sealevel;temperature
14023;BMP180;7086;48.116;11.580;2023-04-24T00:01:21;94436.00;;;15.20
14023;BMP180;7086;48.116;11.580;2023-04-24T00:03:48;94408.00;;;15.20
14023;BMP180;7086;48.116;11.580;2023-04-24T00:06:14;94325.00;;;15.20
14023;BMP180;7086;48.116;11.580;2023-04-24T00:08:42;94420.00;;;15.20
14023;BMP180;7086;48.116;11.580;2023-04-24T00:11:10;94422.00;;;15.20
14023;BMP180;7086;48.116;11.580;2023-04-24T00:13:37;94429.00;;;15.10
14023;BMP180;7086;48.116;11.580;2023-04-24T00:16:05;94417.00;;;15.10
14023;BMP180;7086;48.116;11.580;2023-04-24T00:18:32;94415.00;;;15.00
14023;BMP180;7086;48.116;11.580;2023-04-24T00:20:58;94417.00;;;15.00
14023;BMP180;7086;48.116;11.580;2023-04-24T00:23:26;94306.00;;;15.00
14023;BMP180;7086;48.116;11.580;2023-04-24T00:25:52;94432.00;;;15.00
14023;BMP180;7086;48.116;11.580;2023-04-24T00:28:21;94408.00;;;15.00
14023;BMP180;7086;48.116;11.580;2023-04-24T00:30:47;94415.00;;;15.00
14023;BMP180;7086;48.116;11.580;2023-04-24T00:33:14;94412.00;;;15.00
14023;BMP180;7086;48.116;11.580;2023-04-24T00:35:41;94391.00;;;14.90
14023;BMP180;7086;48.116;11.580;2023-04-24T00:38:08;94416.00;;;14.80
14023;BMP180;7086;48.116;11.580;2023-04-24T00:40:35;94439.00;;;14.90
14023;BMP180;7086;48.116;11.580;2023-04-24T00:43:02;94340.00;;;14.90
14023;BMP180;7086;48.116;11.580;2023-04-24T00:45:30;94326.00;;;14.90
14023;BMP180;7086;48.116;11.580;2023-04-24T00:47:57;94406.00;;;14.90
14023;BMP180;7086;48.116;11.580;2023-04-24T00:50:25;94330.00;;;14.90
14023;BMP180;7086;48.116;11.580;2023-04-24T00:52:52;94336.00;;;14.80
14023;BMP180;7086;48.116;11.580;2023-04-24T00:55:19;94352.00;;;14.80
14023;BMP180;7086;48.116;11.580;2023-04-24T00:57:46;94410.00;;;14.80
14023;BMP180;7086;48.116;11.580;2023-04-24T01:00:14;94408.00;;;14.80
14023;BMP180;7086;48.116;11.580;2023-04-24T01:02:44;94382.00;;;14.70
14023;BMP180;7086;48.116;11.580;2023-04-24T01:05:11;94405.00;;;14.70
14023;BMP180;7086;48.116;11.580;2023-04-24T01:07:38;94390.00;;;14.70
14023;BMP180;7086;48.116;11.580;2023-04-24T01:10:07;94392.00;;;14.70
14023;BMP180;7086;48.116;11.580;2023-04-24T01:12:34;94335.00;;;14.60
14023;BMP180;7086;48.116;11.580;2023-04-24T01:15:01;94429.00;;;14.60
14023;BMP180;7086;48.116;11.580;2023-04-24T01:17:29;94406.00;;;14.60
14023;BMP180;7086;48.116;11.580;2023-04-24T01:19:58;94413.00;;;14.60
14023;BMP180;7086;48.116;11.580;2023-04-24T01:22:26;94365.00;;;14.60
14023;BMP180;7086;48.116;11.580;2023-04-24T01:24:53;94398.00;;;14.50
14023;BMP180;7086;48.116;11.580;2023-04-24T01:27:20;94392.00;;;14.40
14023;BMP180;7086;48.116;11.580;2023-04-24T01:29:47;94364.00;;;14.60
14023;BMP180;7086;48.116;11.580;2023-04-24T01:32:17;94400.00;;;14.50
14023;BMP180;7086;48.116;11.580;2023-04-24T01:34:45;94400.00;;;14.50
14023;BMP180;7086;48.116;11.580;2023-04-24T01:37:13;94327.00;;;14.50
14023;BMP180;7086;48.116;11.580;2023-04-24T01:39:42;94391.00;;;14.50
14023;BMP180;7086;48.116;11.580;2023-04-24T01:42:09;94379.00;;;14.50
14023;BMP180;7086;48.116;11.580;2023-04-24T01:44:36;94395.00;;;14.50
14023;BMP180;7086;48.116;11.580;2023-04-24T01:47:03;94393.00;;;14.50
14023;BMP180;7086;48.116;11.580;2023-04-24T01:49:30;94381.00;;;14.50
14023;BMP180;7086;48.116;11.580;2023-04-24T01:51:58;94327.00;;;14.50
14023;BMP180;7086;48.116;11.580;2023-04-24T01:54:24;94403.00;;;14.50
14023;BMP180;7086;48.116;11.580;2023-04-24T01:56:53;94360.00;;;14.40
14023;BMP180;7086;48.116;11.580;2023-04-24T01:59:20;94409.00;;;14.50
14023;BMP180;7086;48.116;11.580;2023-04-24T02:01:48;94374.00;;;14.50
14023;BMP180;7086;48.116;11.580;2023-04-24T02:04:14;94396.00;;;14.40
14023;BMP180;7086;48.116;11.580;2023-04-24T02:06:41;94332.00;;;14.30
14023;BMP180;7086;48.116;11.580;2023-04-24T02:09:08;94389.00;;;14.40
14023;BMP180;7086;48.116;11.580;2023-04-24T02:11:36;94354.00;;;14.50
14023;BMP180;7086;48.116;11.580;2023-04-24T02:14:04;94311.00;;;14.50
14023;BMP180;7086;48.116;11.580;2023-04-24T02:16:31;94389.00;;;14.40
14023;BMP180;7086;48.116;11.580;2023-04-24T02:18:59;94426.00;;;14.50
14023;BMP180;7086;48.116;11.580;2023-04-24T02:21:26;94394.00;;;14.50
14023;BMP180;7086;48.116;11.580;2023-04-24T02:23:54;94372.00;;;14.50
14023;BMP180;7086;48.116;11.580;2023-04-24T02:26:20;94351.00;;;14.50
14023;BMP180;7086;48.116;11.580;2023-04-24T02:28:47;94391.00;;;14.50
14023;BMP180;7086;48.116;11.580;2023-04-24T02:31:16;94375.00;;;14.50
14023;BMP180;7086;48.116;11.580;2023-04-24T02:33:42;94328.00;;;14.50
14023;BMP180;7086;48.116;11.580;2023-04-24T02:36:09;94385.00;;;14.50
14023;BMP180;7086;48.116;11.580;2023-04-24T02:38:36;94360.00;;;14.50
14023;BMP180;7086;48.116;11.580;2023-04-24T02:41:03;94378.00;;;14.50
14023;BMP180;7086;48.116;11.580;2023-04-24T02:43:31;94359.00;;;14.40
14023;BMP180;7086;48.116;11.580;2023-04-24T02:45:58;94388.00;;;14.40
14023;BMP180;7086;48.116;11.580;2023-04-24T02:48:27;94293.00;;;14.40
14023;BMP180;7086;48.116;11.580;2023-04-24T02:50:54;94401.00;;;14.40
14023;BMP180;7086;48.116;11.580;2023-04-24T02:53:21;94297.00;;;14.00
14023;BMP180;7086;48.116;11.580;2023-04-24T02:55:48;94362.00;;;14.40
14023;BMP180;7086;48.116;11.580;2023-04-24T02:58:15;94392.00;;;14.40
14023;BMP180;7086;48.116;11.580;2023-04-24T03:00:42;94387.00;;;14.40
14023;BMP180;7086;48.116;11.580;2023-04-24T03:03:09;94385.00;;;14.30
14023;BMP180;7086;48.116;11.580;2023-04-24T03:05:38;94389.00;;;14.30
14023;BMP180;7086;48.116;11.580;2023-04-24T03:08:05;94307.00;;;14.30
14023;BMP180;7086;48.116;11.580;2023-04-24T03:10:32;94385.00;;;14.30
14023;BMP180;7086;48.116;11.580;2023-04-24T03:12:59;94391.00;;;14.30
14023;BMP180;7086;48.116;11.580;2023-04-24T03:15:26;94396.00;;;14.20
14023;BMP180;7086;48.116;11.580;2023-04-24T03:17:53;94394.00;;;14.10
14023;BMP180;7086;48.116;11.580;2023-04-24T03:20:21;94390.00;;;14.20
14023;BMP180;7086;48.116;11.580;2023-04-24T03:22:49;94316.00;;;14.20
14023;BMP180;7086;48.116;11.580;2023-04-24T03:25:16;94315.00;;;14.20
14023;BMP180;7086;48.116;11.580;2023-04-24T03:27:43;94390.00;;;14.20
14023;BMP180;7086;48.116;11.580;2023-04-24T03:30:12;94311.00;;;14.20
14023;BMP180;7086;48.116;11.580;2023-04-24T03:32:39;94397.00;;;13.90
14023;BMP180;7086;48.116;11.580;2023-04-24T03:35:06;94300.00;;;14.10
14023;BMP180;7086;48.116;11.580;2023-04-24T03:37:33;94386.00;;;14.10
14023;BMP180;7086;48.116;11.580;2023-04-24T03:40:02;94420.00;;;14.10
14023;BMP180;7086;48.116;11.580;2023-04-24T03:42:31;94432.00;;;14.10
14023;BMP180;7086;48.116;11.580;2023-04-24T03:44:58;94401.00;;;14.00
14023;BMP180;7086;48.116;11.580;2023-04-24T03:47:24;94394.00;;;14.10
14023;BMP180;7086;48.116;11.580;2023-04-24T03:49:51;94343.00;;;14.10
14023;BMP180;7086;48.116;11.580;2023-04-24T03:52:19;94299.00;;;14.00
14023;BMP180;7086;48.116;11.580;2023-04-24T03:54:46;94368.00;;;14.00
14023;BMP180;7086;48.116;11.580;2023-04-24T03:57:14;94302.00;;;14.00
14023;BMP180;7086;48.116;11.580;2023-04-24T03:59:41;94399.00;;;14.00
14023;BMP180;7086;48.116;11.580;2023-04-24T04:02:08;94364.00;;;14.00
14023;BMP180;7086;48.116;11.580;2023-04-24T04:04:35;94380.00;;;14.00
14023;BMP180;7086;48.116;11.580;2023-04-24T04:07:01;94393.00;;;13.80
14023;BMP180;7086;48.116;11.580;2023-04-24T04:09:30;94387.00;;;14.00
14023;BMP180;7086;48.116;11.580;2023-04-24T04:11:57;94377.00;;;14.00
14023;BMP180;7086;48.116;11.580;2023-04-24T04:14:27;94370.00;;;14.00
14023;BMP180;7086;48.116;11.580;2023-04-24T04:16:56;94348.00;;;14.00
14023;BMP180;7086;48.116;11.580;2023-04-24T04:19:23;94379.00;;;14.00
14023;BMP180;7086;48.116;11.580;2023-04-24T04:21:50;94310.00;;;14.00
14023;BMP180;7086;48.116;11.580;2023-04-24T04:24:18;94376.00;;;14.00
14023;BMP180;7086;48.116;11.580;2023-04-24T04:26:47;94392.00;;;14.00
14023;BMP180;7086;48.116;11.580;2023-04-24T04:29:16;94386.00;;;14.10
14023;BMP180;7086;48.116;11.580;2023-04-24T04:31:45;94384.00;;;13.90
14023;BMP180;7086;48.116;11.580;2023-04-24T04:34:11;94391.00;;;14.10
14023;BMP180;7086;48.116;11.580;2023-04-24T04:36:39;94389.00;;;14.00
14023;BMP180;7086;48.116;11.580;2023-04-24T04:39:06;94393.00;;;14.10
14023;BMP180;7086;48.116;11.580;2023-04-24T04:41:33;94360.00;;;14.10
14023;BMP180;7086;48.116;11.580;2023-04-24T04:44:01;94334.00;;;14.10
14023;BMP180;7086;48.116;11.580;2023-04-24T04:46:30;94405.00;;;14.10
14023;BMP180;7086;48.116;11.580;2023-04-24T04:49:01;94359.00;;;14.10
14023;BMP180;7086;48.116;11.580;2023-04-24T04:51:28;94402.00;;;14.10
14023;BMP180;7086;48.116;11.580;2023-04-24T04:53:55;94405.00;;;14.10
14023;BMP180;7086;48.116;11.580;2023-04-24T04:56:22;94381.00;;;14.10
14023;BMP180;7086;48.116;11.580;2023-04-24T04:58:49;94363.00;;;14.10
14023;BMP180;7086;48.116;11.580;2023-04-24T05:01:15;94408.00;;;14.10
14023;BMP180;7086;48.116;11.580;2023-04-24T05:03:42;94392.00;;;14.10
14023;BMP180;7086;48.116;11.580;2023-04-24T05:06:10;94402.00;;;14.10
14023;BMP180;7086;48.116;11.580;2023-04-24T05:08:37;94413.00;;;14.10
14023;BMP180;7086;48.116;11.580;2023-04-24T05:11:04;94399.00;;;14.10
14023;BMP180;7086;48.116;11.580;2023-04-24T05:13:31;94420.00;;;14.10
14023;BMP180;7086;48.116;11.580;2023-04-24T05:15:58;94351.00;;;14.10
14023;BMP180;7086;48.116;11.580;2023-04-24T05:18:25;94425.00;;;14.10
14023;BMP180;7086;48.116;11.580;2023-04-24T05:20:52;94421.00;;;14.10
14023;BMP180;7086;48.116;11.580;2023-04-24T05:23:20;94402.00;;;14.20
14023;BMP180;7086;48.116;11.580;2023-04-24T05:25:46;94424.00;;;14.30
14023;BMP180;7086;48.116;11.580;2023-04-24T05:28:13;94452.00;;;14.30
14023;BMP180;7086;48.116;11.580;2023-04-24T05:30:40;94413.00;;;14.40
14023;BMP180;7086;48.116;11.580;2023-04-24T05:33:07;94425.00;;;14.40
14023;BMP180;7086;48.116;11.580;2023-04-24T05:35:35;94414.00;;;14.40
14023;BMP180;7086;48.116;11.580;2023-04-24T05:38:02;94417.00;;;14.50
14023;BMP180;7086;48.116;11.580;2023-04-24T05:40:30;94400.00;;;14.50
14023;BMP180;7086;48.116;11.580;2023-04-24T05:42:57;94428.00;;;14.60
14023;BMP180;7086;48.116;11.580;2023-04-24T05:45:24;94433.00;;;14.60
14023;BMP180;7086;48.116;11.580;2023-04-24T05:47:51;94425.00;;;14.70
14023;BMP180;7086;48.116;11.580;2023-04-24T05:50:18;94406.00;;;14.70
14023;BMP180;7086;48.116;11.580;2023-04-24T05:52:45;94419.00;;;14.70
14023;BMP180;7086;48.116;11.580;2023-04-24T05:55:12;94404.00;;;14.80
14023;BMP180;7086;48.116;11.580;2023-04-24T05:57:40;94437.00;;;14.80
14023;BMP180;7086;48.116;11.580;2023-04-24T06:00:08;94400.00;;;14.80
14023;BMP180;7086;48.116;11.580;2023-04-24T06:02:37;94440.00;;;14.90
14023;BMP180;7086;48.116;11.580;2023-04-24T06:05:04;94441.00;;;14.90
14023;BMP180;7086;48.116;11.580;2023-04-24T06:07:31;94408.00;;;14.90
14023;BMP180;7086;48.116;11.580;2023-04-24T06:09:58;94391.00;;;15.00
14023;BMP180;7086;48.116;11.580;2023-04-24T06:12:25;94442.00;;;15.00
14023;BMP180;7086;48.116;11.580;2023-04-24T06:14:54;94450.00;;;15.10
14023;BMP180;7086;48.116;11.580;2023-04-24T06:17:21;94367.00;;;15.20
14023;BMP180;7086;48.116;11.580;2023-04-24T06:19:48;94419.00;;;15.30
14023;BMP180;7086;48.116;11.580;2023-04-24T06:22:15;94379.00;;;15.30
14023;BMP180;7086;48.116;11.580;2023-04-24T06:24:42;94443.00;;;15.40
14023;BMP180;7086;48.116;11.580;2023-04-24T06:27:09;94425.00;;;15.50
14023;BMP180;7086;48.116;11.580;2023-04-24T06:29:36;94425.00;;;15.60
14023;BMP180;7086;48.116;11.580;2023-04-24T06:32:04;94441.00;;;15.60
14023;BMP180;7086;48.116;11.580;2023-04-24T06:34:31;94385.00;;;15.70
14023;BMP180;7086;48.116;11.580;2023-04-24T06:36:59;94449.00;;;15.80
14023;BMP180;7086;48.116;11.580;2023-04-24T06:39:26;94459.00;;;15.70
14023;BMP180;7086;48.116;11.580;2023-04-24T06:41:53;94452.00;;;15.90
14023;BMP180;7086;48.116;11.580;2023-04-24T06:44:19;94447.00;;;15.90
14023;BMP180;7086;48.116;11.580;2023-04-24T06:46:46;94453.00;;;16.00
14023;BMP180;7086;48.116;11.580;2023-04-24T06:49:19;94459.00;;;16.10
14023;BMP180;7086;48.116;11.580;2023-04-24T06:51:45;94443.00;;;16.20
14023;BMP180;7086;48.116;11.580;2023-04-24T06:54:12;94456.00;;;16.20
14023;BMP180;7086;48.116;11.580;2023-04-24T06:56:39;94436.00;;;16.40
14023;BMP180;7086;48.116;11.580;2023-04-24T06:59:06;94457.00;;;16.50
14023;BMP180;7086;48.116;11.580;2023-04-24T07:01:33;94449.00;;;16.70
14023;BMP180;7086;48.116;11.580;2023-04-24T07:03:59;94413.00;;;16.90
14023;BMP180;7086;48.116;11.580;2023-04-24T07:06:28;94461.00;;;17.30
14023;BMP180;7086;48.116;11.580;2023-04-24T07:08:57;94465.00;;;17.60
14023;BMP180;7086;48.116;11.580;2023-04-24T07:11:23;94440.00;;;17.80
14023;BMP180;7086;48.116;11.580;2023-04-24T07:13:54;94457.00;;;18.00
14023;BMP180;7086;48.116;11.580;2023-04-24T07:16:21;94457.00;;;18.10
14023;BMP180;7086;48.116;11.580;2023-04-24T07:18:48;94421.00;;;18.30
14023;BMP180;7086;48.116;11.580;2023-04-24T07:21:15;94467.00;;;18.40
14023;BMP180;7086;48.116;11.580;2023-04-24T07:23:43;94461.00;;;18.40
14023;BMP180;7086;48.116;11.580;2023-04-24T07:26:10;94435.00;;;18.40
14023;BMP180;7086;48.116;11.580;2023-04-24T07:28:37;94392.00;;;18.60
14023;BMP180;7086;48.116;11.580;2023-04-24T07:31:04;94479.00;;;18.80
14023;BMP180;7086;48.116;11.580;2023-04-24T07:33:31;94472.00;;;18.80
14023;BMP180;7086;48.116;11.580;2023-04-24T07:35:58;94481.00;;;19.00
14023;BMP180;7086;48.116;11.580;2023-04-24T07:38:25;94458.00;;;19.10
14023;BMP180;7086;48.116;11.580;2023-04-24T07:40:54;94479.00;;;19.20
14023;BMP180;7086;48.116;11.580;2023-04-24T07:43:21;94456.00;;;19.20
14023;BMP180;7086;48.116;11.580;2023-04-24T07:45:49;94457.00;;;19.10
14023;BMP180;7086;48.116;11.580;2023-04-24T07:48:16;94485.00;;;19.00
14023;BMP180;7086;48.116;11.580;2023-04-24T07:50:43;94439.00;;;18.90
14023;BMP180;7086;48.116;11.580;2023-04-24T07:53:10;94493.00;;;18.80
14023;BMP180;7086;48.116;11.580;2023-04-24T07:55:37;94488.00;;;18.70
14023;BMP180;7086;48.116;11.580;2023-04-24T07:58:05;94515.00;;;18.60
14023;BMP180;7086;48.116;11.580;2023-04-24T08:00:33;94485.00;;;18.60
14023;BMP180;7086;48.116;11.580;2023-04-24T08:03:00;94433.00;;;18.50
14023;BMP180;7086;48.116;11.580;2023-04-24T08:05:27;94459.00;;;18.50
14023;BMP180;7086;48.116;11.580;2023-04-24T08:07:54;94516.00;;;18.40
14023;BMP180;7086;48.116;11.580;2023-04-24T08:10:22;94505.00;;;18.40
14023;BMP180;7086;48.116;11.580;2023-04-24T08:12:49;94504.00;;;18.30
14023;BMP180;7086;48.116;11.580;2023-04-24T08:15:17;94513.00;;;18.40
14023;BMP180;7086;48.116;11.580;2023-04-24T08:17:44;94498.00;;;18.40
14023;BMP180;7086;48.116;11.580;2023-04-24T08:20:11;94498.00;;;18.40
14023;BMP180;7086;48.116;11.580;2023-04-24T08:22:40;94508.00;;;18.30
14023;BMP180;7086;48.116;11.580;2023-04-24T08:25:07;94520.00;;;18.30
14023;BMP180;7086;48.116;11.580;2023-04-24T08:27:34;94489.00;;;18.20
14023;BMP180;7086;48.116;11.580;2023-04-24T08:30:02;94513.00;;;18.00
14023;BMP180;7086;48.116;11.580;2023-04-24T08:32:31;94470.00;;;18.00
14023;BMP180;7086;48.116;11.580;2023-04-24T08:34:58;94524.00;;;17.80
14023;BMP180;7086;48.116;11.580;2023-04-24T08:37:26;94515.00;;;17.70
14023;BMP180;7086;48.116;11.580;2023-04-24T08:39:54;94525.00;;;17.60
14023;BMP180;7086;48.116;11.580;2023-04-24T08:42:21;94541.00;;;17.40
14023;BMP180;7086;48.116;11.580;2023-04-24T08:44:49;94549.00;;;17.30
14023;BMP180;7086;48.116;11.580;2023-04-24T08:47:16;94534.00;;;17.10
14023;BMP180;7086;48.116;11.580;2023-04-24T08:49:48;94538.00;;;16.80
14023;BMP180;7086;48.116;11.580;2023-04-24T08:52:16;94559.00;;;16.70
14023;BMP180;7086;48.116;11.580;2023-04-24T08:54:45;94544.00;;;16.60
14023;BMP180;7086;48.116;11.580;2023-04-24T08:57:14;94525.00;;;16.60
14023;BMP180;7086;48.116;11.580;2023-04-24T08:59:41;94559.00;;;16.60
14023;BMP180;7086;48.116;11.580;2023-04-24T09:02:10;94570.00;;;16.60
14023;BMP180;7086;48.116;11.580;2023-04-24T09:04:38;94571.00;;;16.60
14023;BMP180;7086;48.116;11.580;2023-04-24T09:07:07;94549.00;;;16.60
14023;BMP180;7086;48.116;11.580;2023-04-24T09:09:35;94589.00;;;16.60
14023;BMP180;7086;48.116;11.580;2023-04-24T09:12:02;94572.00;;;16.60
14023;BMP180;7086;48.116;11.580;2023-04-24T09:14:30;94561.00;;;16.70
14023;BMP180;7086;48.116;11.580;2023-04-24T09:16:58;94573.00;;;16.70
14023;BMP180;7086;48.116;11.580;2023-04-24T09:19:25;94572.00;;;16.70
14023;BMP180;7086;48.116;11.580;2023-04-24T09:21:53;94570.00;;;16.80
14023;BMP180;7086;48.116;11.580;2023-04-24T09:24:22;94564.00;;;16.80
14023;BMP180;7086;48.116;11.580;2023-04-24T09:26:55;94581.00;;;16.80
14023;BMP180;7086;48.116;11.580;2023-04-24T09:29:22;94585.00;;;17.00
14023;BMP180;7086;48.116;11.580;2023-04-24T09:31:49;94554.00;;;17.00
14023;BMP180;7086;48.116;11.580;2023-04-24T09:34:21;94588.00;;;16.90
14023;BMP180;7086;48.116;11.580;2023-04-24T09:36:48;94573.00;;;17.00
14023;BMP180;7086;48.116;11.580;2023-04-24T09:39:16;94562.00;;;17.00
14023;BMP180;7086;48.116;11.580;2023-04-24T09:41:48;94571.00;;;17.10
14023;BMP180;7086;48.116;11.580;2023-04-24T09:44:16;94576.00;;;17.40
14023;BMP180;7086;48.116;11.580;2023-04-24T09:46:49;94570.00;;;17.60
14023;BMP180;7086;48.116;11.580;2023-04-24T09:49:21;94580.00;;;17.80
14023;BMP180;7086;48.116;11.580;2023-04-24T09:51:48;94561.00;;;18.00
14023;BMP180;7086;48.116;11.580;2023-04-24T09:54:16;94513.00;;;18.30
14023;BMP180;7086;48.116;11.580;2023-04-24T09:56:44;94532.00;;;18.50
14023;BMP180;7086;48.116;11.580;2023-04-24T09:59:14;94560.00;;;18.50
14023;BMP180;7086;48.116;11.580;2023-04-24T10:01:41;94545.00;;;18.80
14023;BMP180;7086;48.116;11.580;2023-04-24T10:04:16;94571.00;;;19.00
14023;BMP180;7086;48.116;11.580;2023-04-24T10:06:45;94571.00;;;19.10
14023;BMP180;7086;48.116;11.580;2023-04-24T10:09:12;94567.00;;;19.40
14023;BMP180;7086;48.116;11.580;2023-04-24T10:11:42;94574.00;;;19.50
14023;BMP180;7086;48.116;11.580;2023-04-24T10:14:14;94554.00;;;19.70
14023;BMP180;7086;48.116;11.580;2023-04-24T10:16:42;94557.00;;;19.70
14023;BMP180;7086;48.116;11.580;2023-04-24T10:19:10;94574.00;;;19.90
14023;BMP180;7086;48.116;11.580;2023-04-24T10:21:40;94520.00;;;20.00
14023;BMP180;7086;48.116;11.580;2023-04-24T10:24:12;94564.00;;;20.10
14023;BMP180;7086;48.116;11.580;2023-04-24T10:26:40;94550.00;;;20.10
14023;BMP180;7086;48.116;11.580;2023-04-24T10:29:07;94553.00;;;20.10
14023;BMP180;7086;48.116;11.580;2023-04-24T10:31:39;94471.00;;;20.10
14023;BMP180;7086;48.116;11.580;2023-04-24T10:34:08;94545.00;;;20.20
14023;BMP180;7086;48.116;11.580;2023-04-24T10:36:38;94511.00;;;20.40
14023;BMP180;7086;48.116;11.580;2023-04-24T10:39:09;94545.00;;;20.40
14023;BMP180;7086;48.116;11.580;2023-04-24T10:41:37;94540.00;;;20.60
14023;BMP180;7086;48.116;11.580;2023-04-24T10:44:05;94557.00;;;20.50
14023;BMP180;7086;48.116;11.580;2023-04-24T10:46:33;94517.00;;;20.50
14023;BMP180;7086;48.116;11.580;2023-04-24T10:49:04;94552.00;;;20.40
14023;BMP180;7086;48.116;11.580;2023-04-24T10:51:45;94519.00;;;20.20
14023;BMP180;7086;48.116;11.580;2023-04-24T10:54:25;94591.00;;;20.00
14023;BMP180;7086;48.116;11.580;2023-04-24T10:56:53;94572.00;;;19.80
14023;BMP180;7086;48.116;11.580;2023-04-24T10:59:26;94617.00;;;19.50
14023;BMP180;7086;48.116;11.580;2023-04-24T11:01:53;94609.00;;;19.10
14023;BMP180;7086;48.116;11.580;2023-04-24T11:04:31;94578.00;;;18.70
14023;BMP180;7086;48.116;11.580;2023-04-24T11:06:58;94591.00;;;18.30
14023;BMP180;7086;48.116;11.580;2023-04-24T11:09:26;94557.00;;;18.10
14023;BMP180;7086;48.116;11.580;2023-04-24T11:12:03;94597.00;;;17.70
14023;BMP180;7086;48.116;11.580;2023-04-24T11:14:59;94583.00;;;17.80
14023;BMP180;7086;48.116;11.580;2023-04-24T11:17:30;94579.00;;;17.80
14023;BMP180;7086;48.116;11.580;2023-04-24T11:20:02;94545.00;;;17.90
14023;BMP180;7086;48.116;11.580;2023-04-24T11:22:33;94569.00;;;18.20
14023;BMP180;7086;48.116;11.580;2023-04-24T11:25:00;94574.00;;;18.60
14023;BMP180;7086;48.116;11.580;2023-04-24T11:27:30;94577.00;;;19.20
14023;BMP180;7086;48.116;11.580;2023-04-24T11:30:01;94587.00;;;19.60
14023;BMP180;7086;48.116;11.580;2023-04-24T11:32:30;94576.00;;;20.10
14023;BMP180;7086;48.116;11.580;2023-04-24T11:34:58;94590.00;;;20.50
14023;BMP180;7086;48.116;11.580;2023-04-24T11:37:28;94560.00;;;20.80
14023;BMP180;7086;48.116;11.580;2023-04-24T11:39:57;94568.00;;;21.10
14023;BMP180;7086;48.116;11.580;2023-04-24T11:42:24;94573.00;;;21.30
14023;BMP180;7086;48.116;11.580;2023-04-24T11:44:52;94570.00;;;21.40
14023;BMP180;7086;48.116;11.580;2023-04-24T11:47:27;94561.00;;;21.50
14023;BMP180;7086;48.116;11.580;2023-04-24T11:49:55;94582.00;;;21.60
14023;BMP180;7086;48.116;11.580;2023-04-24T11:52:21;94554.00;;;21.70
14023;BMP180;7086;48.116;11.580;2023-04-24T11:54:50;94567.00;;;21.70
14023;BMP180;7086;48.116;11.580;2023-04-24T11:57:19;94573.00;;;21.60
14023;BMP180;7086;48.116;11.580;2023-04-24T11:59:46;94577.00;;;21.50
14023;BMP180;7086;48.116;11.580;2023-04-24T12:02:20;94594.00;;;21.30
14023;BMP180;7086;48.116;11.580;2023-04-24T12:04:47;94583.00;;;21.10
14023;BMP180;7086;48.116;11.580;2023-04-24T12:07:17;94582.00;;;20.90
14023;BMP180;7086;48.116;11.580;2023-04-24T12:09:45;94565.00;;;20.50
14023;BMP180;7086;48.116;11.580;2023-04-24T12:12:15;94562.00;;;20.40
14023;BMP180;7086;48.116;11.580;2023-04-24T12:14:44;94580.00;;;20.30
14023;BMP180;7086;48.116;11.580;2023-04-24T12:17:11;94574.00;;;20.20
14023;BMP180;7086;48.116;11.580;2023-04-24T12:19:37;94597.00;;;20.10
14023;BMP180;7086;48.116;11.580;2023-04-24T12:22:06;94582.00;;;20.00
14023;BMP180;7086;48.116;11.580;2023-04-24T12:24:32;94581.00;;;19.90
14023;BMP180;7086;48.116;11.580;2023-04-24T12:26:59;94539.00;;;19.90
14023;BMP180;7086;48.116;11.580;2023-04-24T12:29:28;94565.00;;;19.80
14023;BMP180;7086;48.116;11.580;2023-04-24T12:31:55;94555.00;;;19.70
14023;BMP180;7086;48.116;11.580;2023-04-24T12:34:23;94563.00;;;19.70
14023;BMP180;7086;48.116;11.580;2023-04-24T12:36:50;94557.00;;;19.70
14023;BMP180;7086;48.116;11.580;2023-04-24T12:39:17;94565.00;;;19.70
14023;BMP180;7086;48.116;11.580;2023-04-24T12:41:54;94529.00;;;19.80
14023;BMP180;7086;48.116;11.580;2023-04-24T12:44:30;94535.00;;;19.90
14023;BMP180;7086;48.116;11.580;2023-04-24T12:46:59;94522.00;;;20.00
14023;BMP180;7086;48.116;11.580;2023-04-24T12:49:26;94534.00;;;20.00
14023;BMP180;7086;48.116;11.580;2023-04-24T12:51:54;94560.00;;;20.00
14023;BMP180;7086;48.116;11.580;2023-04-24T12:54:28;94567.00;;;20.00
14023;BMP180;7086;48.116;11.580;2023-04-24T12:57:05;94578.00;;;20.10
14023;BMP180;7086;48.116;11.580;2023-04-24T12:59:33;94576.00;;;20.10
14023;BMP180;7086;48.116;11.580;2023-04-24T13:02:00;94581.00;;;20.20
14023;BMP180;7086;48.116;11.580;2023-04-24T13:04:27;94567.00;;;20.20
14023;BMP180;7086;48.116;11.580;2023-04-24T13:06:53;94579.00;;;20.20
14023;BMP180;7086;48.116;11.580;2023-04-24T13:09:20;94588.00;;;20.20
14023;BMP180;7086;48.116;11.580;2023-04-24T13:11:47;94585.00;;;20.40
14023;BMP180;7086;48.116;11.580;2023-04-24T13:14:14;94591.00;;;20.40
14023;BMP180;7086;48.116;11.580;2023-04-24T13:16:42;94585.00;;;20.50
14023;BMP180;7086;48.116;11.580;2023-04-24T13:19:09;94589.00;;;20.50
14023;BMP180;7086;48.116;11.580;2023-04-24T13:21:35;94529.00;;;20.40
14023;BMP180;7086;48.116;11.580;2023-04-24T13:24:02;94594.00;;;20.30
14023;BMP180;7086;48.116;11.580;2023-04-24T13:26:30;94617.00;;;20.20
14023;BMP180;7086;48.116;11.580;2023-04-24T13:28:57;94603.00;;;20.20
14023;BMP180;7086;48.116;11.580;2023-04-24T13:31:23;94604.00;;;20.00
14023;BMP180;7086;48.116;11.580;2023-04-24T13:33:52;94591.00;;;20.00
14023;BMP180;7086;48.116;11.580;2023-04-24T13:36:18;94582.00;;;19.90
14023;BMP180;7086;48.116;11.580;2023-04-24T13:38:45;94600.00;;;19.90
14023;BMP180;7086;48.116;11.580;2023-04-24T13:41:12;94593.00;;;19.90
14023;BMP180;7086;48.116;11.580;2023-04-24T13:43:39;94592.00;;;20.00
14023;BMP180;7086;48.116;11.580;2023-04-24T13:46:07;94592.00;;;20.00
14023;BMP180;7086;48.116;11.580;2023-04-24T13:48:34;94594.00;;;20.10
14023;BMP180;7086;48.116;11.580;2023-04-24T13:51:02;94562.00;;;20.10
14023;BMP180;7086;48.116;11.580;2023-04-24T13:53:29;94577.00;;;20.10
14023;BMP180;7086;48.116;11.580;2023-04-24T13:55:57;94581.00;;;20.10
14023;BMP180;7086;48.116;11.580;2023-04-24T13:58:24;94525.00;;;20.10
14023;BMP180;7086;48.116;11.580;2023-04-24T14:00:51;94580.00;;;20.10
14023;BMP180;7086;48.116;11.580;2023-04-24T14:03:18;94585.00;;;20.10
14023;BMP180;7086;48.116;11.580;2023-04-24T14:05:45;94584.00;;;20.10
14023;BMP180;7086;48.116;11.580;2023-04-24T14:08:15;94577.00;;;20.10
14023;BMP180;7086;48.116;11.580;2023-04-24T14:10:42;94592.00;;;20.00
14023;BMP180;7086;48.116;11.580;2023-04-24T14:13:09;94586.00;;;20.00